createdAt,value
2019-01-10T00:00:09.307Z,100
2019-01-10T00:01:11.452Z,100
2019-01-10T00:02:13.595Z,100
2019-01-10T00:03:15.735Z,100
2019-01-10T00:04:17.867Z,100
2019-01-10T00:05:19.995Z,100
2019-01-10T00:06:22.456Z,100
2019-01-10T00:07:24.628Z,100
2019-01-10T00:08:26.770Z,100
2019-01-10T00:09:28.919Z,100
2019-01-10T00:10:31.092Z,100
2019-01-10T00:11:33.575Z,100
2019-01-10T00:12:40.939Z,100
2019-01-10T00:13:43.072Z,100
2019-01-10T00:14:45.201Z,100
2019-01-10T00:15:47.343Z,100
2019-01-10T00:16:49.474Z,100
2019-01-10T00:17:51.889Z,100
2019-01-10T00:18:54.422Z,100
2019-01-10T00:19:56.554Z,100
2019-01-10T00:20:58.688Z,100
2019-01-10T00:22:00.828Z,100
2019-01-10T00:23:02.966Z,100
2019-01-10T00:24:05.278Z,100
2019-01-10T00:25:07.496Z,100
2019-01-10T00:26:09.686Z,100
2019-01-10T00:27:11.841Z,100
2019-01-10T00:28:14.271Z,100
2019-01-10T00:29:16.417Z,100
2019-01-10T00:30:18.549Z,100
2019-01-10T00:31:20.709Z,100
2019-01-10T00:32:23.165Z,100
2019-01-10T00:33:25.274Z,100
2019-01-10T00:34:27.459Z,100
2019-01-10T00:35:29.905Z,100
2019-01-10T00:36:32.062Z,100
2019-01-10T00:37:34.237Z,100
2019-01-10T00:38:36.679Z,100
2019-01-10T00:39:40.476Z,100
2019-01-10T00:40:42.997Z,100
2019-01-10T00:41:45.140Z,100
2019-01-10T00:42:50.953Z,100
2019-01-10T00:43:53.294Z,100
2019-01-10T00:44:55.418Z,100
2019-01-10T00:45:57.574Z,100
2019-01-10T00:46:59.713Z,100
2019-01-10T00:48:01.848Z,100
2019-01-10T00:49:04.019Z,100
2019-01-10T00:50:06.444Z,100
2019-01-10T00:51:08.597Z,100
2019-01-10T00:52:11.011Z,100
2019-01-10T00:53:13.148Z,100
2019-01-10T00:54:15.703Z,100
2019-01-10T00:55:17.840Z,100
2019-01-10T00:56:19.990Z,100
2019-01-10T00:57:22.130Z,100
2019-01-10T00:58:24.367Z,100
2019-01-10T00:59:26.785Z,100
2019-01-10T01:00:29.220Z,100
2019-01-10T01:01:31.753Z,100
2019-01-10T01:02:34.045Z,100
2019-01-10T01:03:36.202Z,100
2019-01-10T01:04:38.602Z,100
2019-01-10T01:05:40.748Z,100
2019-01-10T01:06:42.873Z,100
2019-01-10T01:07:45.015Z,100
2019-01-10T01:08:47.172Z,100
2019-01-10T01:09:49.722Z,100
2019-01-10T01:10:51.918Z,100
2019-01-10T01:11:54.056Z,100
2019-01-10T01:12:59.987Z,100
2019-01-10T01:14:02.094Z,100
2019-01-10T01:15:04.298Z,100
2019-01-10T01:16:06.536Z,100
2019-01-10T01:17:09.103Z,100
2019-01-10T01:18:11.275Z,100
2019-01-10T01:19:13.479Z,100
2019-01-10T01:20:15.628Z,100
2019-01-10T01:21:18.064Z,100
2019-01-10T01:22:20.486Z,100
2019-01-10T01:23:22.679Z,100
2019-01-10T01:24:24.843Z,100
2019-01-10T01:25:27.651Z,100
2019-01-10T01:26:29.792Z,100
2019-01-10T01:27:31.911Z,100
2019-01-10T01:28:34.035Z,100
2019-01-10T01:29:36.170Z,100
2019-01-10T01:30:38.286Z,100
2019-01-10T01:31:40.491Z,100
2019-01-10T01:32:42.604Z,100
2019-01-10T01:33:44.732Z,100
2019-01-10T01:34:46.890Z,100
2019-01-10T01:35:49.069Z,100
2019-01-10T01:36:51.199Z,100
2019-01-10T01:37:53.316Z,100
2019-01-10T01:38:55.447Z,100
2019-01-10T01:39:57.591Z,100
2019-01-10T01:41:00.426Z,100
2019-01-10T01:42:02.858Z,100
2019-01-10T01:43:08.616Z,100
2019-01-10T01:44:10.773Z,100
2019-01-10T01:45:12.960Z,100
2019-01-10T01:46:15.084Z,100
2019-01-10T01:47:17.427Z,100
2019-01-10T01:48:20.252Z,100
2019-01-10T01:49:22.381Z,100
2019-01-10T01:50:24.521Z,100
2019-01-10T01:51:26.934Z,100
2019-01-10T01:52:29.503Z,100
2019-01-10T01:53:32.001Z,100
2019-01-10T01:54:34.141Z,100
2019-01-10T01:55:36.373Z,100
2019-01-10T01:56:38.511Z,100
2019-01-10T01:57:40.655Z,100
2019-01-10T01:58:42.768Z,100
2019-01-10T01:59:44.909Z,100
2019-01-10T02:00:47.050Z,100
2019-01-10T02:01:49.541Z,100
2019-01-10T02:02:51.702Z,100
2019-01-10T02:03:54.105Z,100
2019-01-10T02:04:56.255Z,100
2019-01-10T02:05:58.795Z,100
2019-01-10T02:07:00.921Z,100
2019-01-10T02:08:03.038Z,100
2019-01-10T02:09:05.200Z,100
2019-01-10T02:10:07.330Z,100
2019-01-10T02:11:09.745Z,100
2019-01-10T02:12:11.870Z,100
2019-01-10T02:13:17.876Z,100
2019-01-10T02:14:20.205Z,100
2019-01-10T02:15:22.551Z,100
2019-01-10T02:16:24.696Z,100
2019-01-10T02:17:26.910Z,100
2019-01-10T02:18:29.322Z,100
2019-01-10T02:19:31.447Z,100
2019-01-10T02:20:33.593Z,100
2019-01-10T02:21:35.756Z,100
2019-01-10T02:22:39.554Z,100
2019-01-10T02:23:41.693Z,100
2019-01-10T02:24:43.826Z,100
2019-01-10T02:25:45.966Z,100
2019-01-10T02:26:48.092Z,100
2019-01-10T02:27:50.322Z,100
2019-01-10T02:28:52.480Z,100
2019-01-10T02:29:54.928Z,100
2019-01-10T02:30:57.348Z,100
2019-01-10T02:31:59.862Z,100
2019-01-10T02:33:02.564Z,100
2019-01-10T02:34:05.103Z,100
2019-01-10T02:35:07.542Z,100
2019-01-10T02:36:09.988Z,100
2019-01-10T02:37:12.477Z,100
2019-01-10T02:38:14.964Z,100
2019-01-10T02:39:17.105Z,100
2019-01-10T02:40:19.307Z,100
2019-01-10T02:41:21.467Z,100
2019-01-10T02:42:23.889Z,100
2019-01-10T02:43:27.685Z,100
2019-01-10T02:44:30.098Z,100
2019-01-10T02:45:32.229Z,100
2019-01-10T02:46:34.372Z,100
2019-01-10T02:47:36.523Z,100
2019-01-10T02:48:38.667Z,100
2019-01-10T02:49:40.860Z,100
2019-01-10T02:50:43.356Z,100
2019-01-10T02:51:45.580Z,100
2019-01-10T02:52:47.761Z,100
2019-01-10T02:53:50.303Z,100
2019-01-10T02:54:52.450Z,100
2019-01-10T02:55:54.587Z,100
2019-01-10T02:56:57.317Z,100
2019-01-10T02:57:59.447Z,100
2019-01-10T02:59:02.129Z,100
2019-01-10T03:00:04.321Z,100
2019-01-10T03:01:06.464Z,100
2019-01-10T03:02:08.884Z,100
2019-01-10T03:03:11.006Z,100
2019-01-10T03:04:13.431Z,100
2019-01-10T03:05:15.566Z,100
2019-01-10T03:06:17.694Z,100
2019-01-10T03:07:20.297Z,100
2019-01-10T03:08:23.097Z,100
2019-01-10T03:09:25.618Z,100
2019-01-10T03:10:27.793Z,100
2019-01-10T03:11:29.934Z,100
2019-01-10T03:12:32.051Z,100
2019-01-10T03:13:37.815Z,100
2019-01-10T03:14:39.968Z,100
2019-01-10T03:15:42.101Z,100
2019-01-10T03:16:44.233Z,100
2019-01-10T03:17:46.371Z,100
2019-01-10T03:18:48.514Z,100
2019-01-10T03:19:50.665Z,100
2019-01-10T03:20:53.608Z,100
2019-01-10T03:21:55.731Z,100
2019-01-10T03:22:58.361Z,100
2019-01-10T03:24:00.512Z,100
2019-01-10T03:25:02.948Z,100
2019-01-10T03:26:05.065Z,100
2019-01-10T03:27:07.211Z,100
2019-01-10T03:28:09.722Z,100
2019-01-10T03:29:12.849Z,100
2019-01-10T03:30:15.297Z,100
2019-01-10T03:31:17.497Z,100
2019-01-10T03:32:20.379Z,100
2019-01-10T03:33:23.944Z,100
2019-01-10T03:34:26.419Z,100
2019-01-10T03:35:28.843Z,100
2019-01-10T03:36:30.989Z,100
2019-01-10T03:37:33.108Z,100
2019-01-10T03:38:35.631Z,100
2019-01-10T03:39:37.779Z,100
2019-01-10T03:40:39.956Z,100
2019-01-10T03:41:42.069Z,100
2019-01-10T03:42:44.201Z,100
2019-01-10T03:43:48.727Z,100
2019-01-10T03:44:51.207Z,100
2019-01-10T03:45:53.339Z,100
2019-01-10T03:46:55.851Z,100
2019-01-10T03:47:58.278Z,100
2019-01-10T03:49:00.595Z,100
2019-01-10T03:50:02.737Z,100
2019-01-10T03:51:05.191Z,100
2019-01-10T03:52:07.330Z,100
2019-01-10T03:53:09.759Z,100
2019-01-10T03:54:11.881Z,100
2019-01-10T03:55:14.330Z,100
2019-01-10T03:56:16.552Z,100
2019-01-10T03:57:18.677Z,100
2019-01-10T03:58:20.823Z,100
2019-01-10T03:59:22.951Z,100
2019-01-10T04:00:25.113Z,100
2019-01-10T04:01:27.228Z,100
2019-01-10T04:02:29.362Z,100
2019-01-10T04:03:32.187Z,100
2019-01-10T04:04:34.328Z,100
2019-01-10T04:05:36.462Z,100
2019-01-10T04:06:40.665Z,100
2019-01-10T04:07:43.383Z,100
2019-01-10T04:08:46.098Z,100
2019-01-10T04:09:48.508Z,100
2019-01-10T04:10:50.676Z,100
2019-01-10T04:11:53.090Z,100
2019-01-10T04:12:55.243Z,100
2019-01-10T04:13:58.636Z,100
2019-01-10T04:15:01.074Z,100
2019-01-10T04:16:03.515Z,100
2019-01-10T04:17:05.930Z,100
2019-01-10T04:18:08.083Z,100
2019-01-10T04:19:10.228Z,100
2019-01-10T04:20:12.348Z,100
2019-01-10T04:21:18.513Z,100
2019-01-10T04:22:20.668Z,100
2019-01-10T04:23:23.110Z,100
2019-01-10T04:24:25.265Z,100
2019-01-10T04:25:27.397Z,100
2019-01-10T04:26:29.796Z,100
2019-01-10T04:27:31.956Z,100
2019-01-10T04:28:34.394Z,100
2019-01-10T04:29:36.539Z,100
2019-01-10T04:30:39.243Z,100
2019-01-10T04:31:41.397Z,100
2019-01-10T04:32:43.964Z,100
2019-01-10T04:33:46.101Z,100
2019-01-10T04:34:48.254Z,100
2019-01-10T04:35:50.379Z,100
2019-01-10T04:36:52.542Z,100
2019-01-10T04:37:54.675Z,100
2019-01-10T04:38:56.860Z,100
2019-01-10T04:39:59.264Z,100
2019-01-10T04:41:01.494Z,100
2019-01-10T04:42:03.690Z,100
2019-01-10T04:43:06.601Z,100
2019-01-10T04:44:08.758Z,100
2019-01-10T04:45:10.893Z,100
2019-01-10T04:46:13.226Z,100
2019-01-10T04:47:15.362Z,100
2019-01-10T04:48:17.491Z,100
2019-01-10T04:49:19.621Z,100
2019-01-10T04:50:22.021Z,100
2019-01-10T04:51:24.160Z,100
2019-01-10T04:52:27.019Z,100
2019-01-10T04:53:29.171Z,100
2019-01-10T04:54:31.308Z,100
2019-01-10T04:55:33.947Z,100
2019-01-10T04:56:36.380Z,100
2019-01-10T04:57:38.519Z,100
2019-01-10T04:58:41.074Z,100
2019-01-10T04:59:43.500Z,100
2019-01-10T05:00:45.667Z,100
2019-01-10T05:01:47.884Z,100
2019-01-10T05:02:50.023Z,100
2019-01-10T05:03:52.555Z,100
2019-01-10T05:04:54.680Z,100
2019-01-10T05:05:57.131Z,100
2019-01-10T05:06:59.270Z,100
2019-01-10T05:08:01.427Z,100
2019-01-10T05:09:03.867Z,100
2019-01-10T05:10:05.983Z,100
2019-01-10T05:11:08.140Z,100
2019-01-10T05:12:10.292Z,100
2019-01-10T05:13:12.447Z,100
2019-01-10T05:14:17.815Z,100
2019-01-10T05:15:20.279Z,100
2019-01-10T05:16:22.707Z,100
2019-01-10T05:17:24.832Z,100
2019-01-10T05:18:26.978Z,100
2019-01-10T05:19:29.419Z,100
2019-01-10T05:20:31.640Z,100
2019-01-10T05:21:34.102Z,100
2019-01-10T05:22:36.319Z,100
2019-01-10T05:23:38.447Z,100
2019-01-10T05:24:41.183Z,100
2019-01-10T05:25:43.441Z,100
2019-01-10T05:26:45.869Z,100
2019-01-10T05:27:48.014Z,100
2019-01-10T05:28:50.447Z,100
2019-01-10T05:29:52.879Z,100
2019-01-10T05:30:55.003Z,100
2019-01-10T05:31:57.140Z,100
2019-01-10T05:32:59.559Z,100
2019-01-10T05:34:01.686Z,100
2019-01-10T05:35:04.205Z,100
2019-01-10T05:36:06.338Z,100
2019-01-10T05:37:08.449Z,100
2019-01-10T05:38:10.599Z,100
2019-01-10T05:39:12.729Z,100
2019-01-10T05:40:14.869Z,100
2019-01-10T05:41:17.009Z,100
2019-01-10T05:42:19.139Z,100
2019-01-10T05:43:21.285Z,100
2019-01-10T05:44:27.852Z,100
2019-01-10T05:45:30.043Z,100
2019-01-10T05:46:32.193Z,100
2019-01-10T05:47:34.329Z,100
2019-01-10T05:48:36.464Z,100
2019-01-10T05:49:38.609Z,100
2019-01-10T05:50:43.619Z,100
2019-01-10T05:51:46.032Z,100
2019-01-10T05:52:48.203Z,100
2019-01-10T05:53:50.640Z,100
2019-01-10T05:54:53.175Z,100
2019-01-10T05:55:55.314Z,100
2019-01-10T05:56:57.737Z,100
2019-01-10T05:57:59.867Z,100
2019-01-10T05:59:01.987Z,100
2019-01-10T06:00:04.120Z,100
2019-01-10T06:01:06.547Z,100
2019-01-10T06:02:08.687Z,100
2019-01-10T06:03:10.826Z,100
2019-01-10T06:04:12.946Z,100
2019-01-10T06:05:15.077Z,100
2019-01-10T06:06:17.314Z,100
2019-01-10T06:07:19.469Z,100
2019-01-10T06:08:21.613Z,100
2019-01-10T06:09:23.756Z,100
2019-01-10T06:10:26.172Z,100
2019-01-10T06:11:28.321Z,100
2019-01-10T06:12:30.461Z,100
2019-01-10T06:13:32.608Z,100
2019-01-10T06:14:36.824Z,100
2019-01-10T06:15:38.946Z,100
2019-01-10T06:16:41.365Z,100
2019-01-10T06:17:43.524Z,100
2019-01-10T06:18:45.676Z,100
2019-01-10T06:19:47.815Z,100
2019-01-10T06:20:49.967Z,100
2019-01-10T06:21:52.125Z,100
2019-01-10T06:22:54.264Z,100
2019-01-10T06:23:56.453Z,100
2019-01-10T06:24:58.589Z,100
2019-01-10T06:26:00.732Z,100
2019-01-10T06:27:03.148Z,100
2019-01-10T06:28:05.372Z,100
2019-01-10T06:29:07.508Z,100
2019-01-10T06:30:09.648Z,100
2019-01-10T06:31:11.790Z,100
2019-01-10T06:32:14.010Z,100
2019-01-10T06:33:16.158Z,99
2019-01-10T06:34:18.293Z,100
2019-01-10T06:35:20.463Z,99
2019-01-10T06:36:22.619Z,99
2019-01-10T06:37:24.737Z,99
2019-01-10T06:38:26.866Z,100
2019-01-10T06:39:29.018Z,99
2019-01-10T06:40:31.545Z,98
2019-01-10T06:41:33.681Z,97
2019-01-10T06:42:35.829Z,96
2019-01-10T06:43:37.956Z,96
2019-01-10T06:44:46.046Z,96
2019-01-10T06:45:48.203Z,96
2019-01-10T06:46:50.342Z,95
2019-01-10T06:47:52.918Z,95
2019-01-10T06:48:55.049Z,96
2019-01-10T06:49:57.268Z,96
2019-01-10T06:50:59.467Z,96
2019-01-10T06:52:01.593Z,96
2019-01-10T06:53:03.752Z,95
2019-01-10T06:54:06.276Z,95
2019-01-10T06:55:08.399Z,95
2019-01-10T06:56:10.820Z,96
2019-01-10T06:57:12.956Z,96
2019-01-10T06:58:15.076Z,96
2019-01-10T06:59:17.206Z,96
2019-01-10T07:00:19.726Z,96
2019-01-10T07:01:21.871Z,95
2019-01-10T07:02:24.010Z,95
2019-01-10T07:03:26.158Z,94
2019-01-10T07:04:28.315Z,94
2019-01-10T07:05:30.457Z,94
2019-01-10T07:06:32.670Z,94
2019-01-10T07:07:34.821Z,95
2019-01-10T07:08:37.236Z,94
2019-01-10T07:09:39.379Z,94
2019-01-10T07:10:41.892Z,95
2019-01-10T07:11:44.303Z,95
2019-01-10T07:12:46.501Z,95
2019-01-10T07:13:48.667Z,95
2019-01-10T07:14:54.629Z,96
2019-01-10T07:15:56.755Z,95
2019-01-10T07:16:58.894Z,96
2019-01-10T07:18:01.023Z,96
2019-01-10T07:19:03.177Z,96
2019-01-10T07:20:05.307Z,96
2019-01-10T07:21:07.743Z,97
2019-01-10T07:22:09.894Z,97
2019-01-10T07:23:12.389Z,97
2019-01-10T07:24:14.521Z,97
2019-01-10T07:25:16.680Z,97
2019-01-10T07:26:18.916Z,96
2019-01-10T07:27:21.461Z,96
2019-01-10T07:28:23.589Z,97
2019-01-10T07:29:25.755Z,97
2019-01-10T07:30:37.537Z,97
2019-01-10T07:31:39.694Z,98
2019-01-10T07:32:41.841Z,97
2019-01-10T07:33:43.993Z,97
2019-01-10T07:34:46.515Z,97
2019-01-10T07:35:48.692Z,96
2019-01-10T07:36:50.833Z,97
2019-01-10T07:37:53.039Z,96
2019-01-10T07:38:55.198Z,96
2019-01-10T07:39:57.728Z,96
2019-01-10T07:40:59.870Z,96
2019-01-10T07:42:02.297Z,97
2019-01-10T07:43:04.429Z,96
2019-01-10T07:44:06.580Z,97
2019-01-10T07:45:08.705Z,96
2019-01-10T07:46:10.841Z,95
2019-01-10T07:47:12.978Z,95
2019-01-10T07:48:15.126Z,94
2019-01-10T07:49:17.275Z,94
2019-01-10T07:50:19.710Z,94
2019-01-10T07:51:22.244Z,94
2019-01-10T07:52:24.382Z,94
2019-01-10T07:53:26.539Z,93
2019-01-10T07:54:28.657Z,93
2019-01-10T07:55:30.816Z,93
2019-01-10T07:56:33.239Z,94
2019-01-10T07:57:35.402Z,94
2019-01-10T07:58:37.902Z,94
2019-01-10T07:59:40.040Z,94
2019-01-10T08:00:42.163Z,95
2019-01-10T08:01:44.580Z,95
2019-01-10T08:02:46.723Z,94
2019-01-10T08:03:49.234Z,94
2019-01-10T08:04:51.350Z,94
2019-01-10T08:05:53.484Z,93
2019-01-10T08:06:55.752Z,94
2019-01-10T08:07:57.897Z,94
2019-01-10T08:09:00.031Z,94
2019-01-10T08:10:02.166Z,95
2019-01-10T08:11:04.315Z,94
2019-01-10T08:12:06.484Z,94
2019-01-10T08:13:08.608Z,94
2019-01-10T08:14:10.837Z,93
2019-01-10T08:15:13.287Z,93
2019-01-10T08:16:15.424Z,94
2019-01-10T08:17:17.856Z,94
2019-01-10T08:18:20.043Z,94
2019-01-10T08:19:22.254Z,94
2019-01-10T08:20:24.500Z,95
2019-01-10T08:21:26.942Z,94
2019-01-10T08:22:29.191Z,94
2019-01-10T08:23:31.336Z,95
2019-01-10T08:24:33.480Z,95
2019-01-10T08:25:35.606Z,94
2019-01-10T08:26:37.759Z,95
2019-01-10T08:27:39.915Z,95
2019-01-10T08:28:42.075Z,94
2019-01-10T08:29:44.204Z,94
2019-01-10T08:30:46.325Z,93
2019-01-10T08:31:48.449Z,94
2019-01-10T08:32:50.872Z,93
2019-01-10T08:33:53.282Z,93
2019-01-10T08:34:55.404Z,94
2019-01-10T08:35:57.553Z,93
2019-01-10T08:36:59.685Z,92
2019-01-10T08:38:02.204Z,91
2019-01-10T08:39:04.422Z,92
2019-01-10T08:40:06.869Z,92
2019-01-10T08:41:09.697Z,92
2019-01-10T08:42:12.210Z,92
2019-01-10T08:43:14.339Z,93
2019-01-10T08:44:17.017Z,91
2019-01-10T08:45:23.025Z,92
2019-01-10T08:46:25.156Z,92
2019-01-10T08:47:27.289Z,92
2019-01-10T08:48:29.830Z,92
2019-01-10T08:49:31.957Z,92
2019-01-10T08:50:34.125Z,92
2019-01-10T08:51:38.852Z,93
2019-01-10T08:52:41.378Z,92
2019-01-10T08:53:43.492Z,93
2019-01-10T08:54:55.160Z,93
2019-01-10T08:55:57.308Z,94
2019-01-10T08:56:59.425Z,94
2019-01-10T08:58:01.583Z,94
2019-01-10T08:59:04.112Z,93
2019-01-10T09:00:06.269Z,93
2019-01-10T09:01:08.420Z,92
